createdAt,value
2023-11-01T07:22:55.679Z,2.50
2023-11-01T07:31:01.291Z,6.43
2023-11-01T07:39:09.481Z,1.38
2023-11-01T07:47:15.556Z,0.90
2023-11-01T07:55:24.788Z,4.85
2023-11-01T08:03:32.958Z,2.55
2023-11-01T08:11:41.427Z,5.10
2023-11-01T08:19:47.919Z,3.72
2023-11-01T08:27:56.192Z,2.47
2023-11-01T08:36:02.448Z,1.17
2023-11-01T08:44:11.111Z,2.25
2023-11-01T08:52:17.808Z,1.55
2023-11-01T09:00:39.022Z,1.63
2023-11-01T09:08:50.956Z,1.80
2023-11-01T09:17:00.107Z,4.00
2023-11-01T09:25:05.746Z,2.15
2023-11-01T09:33:13.885Z,3.58
2023-11-01T09:41:28.208Z,3.78
2023-11-01T09:49:37.652Z,1.70
2023-11-01T09:57:47.130Z,3.30
2023-11-01T10:05:55.385Z,3.42
2023-11-01T10:14:01.181Z,2.25
2023-11-01T10:22:09.776Z,2.60
2023-11-01T10:30:16.173Z,3.13
2023-11-01T10:38:24.323Z,2.95
2023-11-01T10:46:30.328Z,2.88
2023-11-01T10:54:39.659Z,1.63
2023-11-01T11:02:53.310Z,0.88
2023-11-01T11:11:19.251Z,2.80
2023-11-01T11:19:25.081Z,3.92
2023-11-01T11:28:04.178Z,4.00
2023-11-01T11:36:24.757Z,1.35
2023-11-01T11:44:30.901Z,4.57
2023-11-01T11:52:39.907Z,2.08
2023-11-01T12:00:50.014Z,2.55
2023-11-01T12:08:58.125Z,3.88
2023-11-01T12:17:04.789Z,3.38
2023-11-01T12:25:13.133Z,2.80
2023-11-01T12:33:25.438Z,3.15
2023-11-01T12:41:33.707Z,5.23
2023-11-01T12:49:46.309Z,2.40
2023-11-01T12:57:56.143Z,0.87
2023-11-01T13:06:02.102Z,1.42
2023-11-01T13:14:10.614Z,1.90
2023-11-01T13:22:16.166Z,1.40
2023-11-01T13:30:24.256Z,3.63
2023-11-01T13:38:29.936Z,3.00
2023-11-01T13:46:38.241Z,4.38
2023-11-01T13:54:43.716Z,6.47
2023-11-01T14:02:51.943Z,1.65
2023-11-01T14:10:57.460Z,2.95
2023-11-01T14:19:07.576Z,4.25
2023-11-01T14:27:14.673Z,4.03
2023-11-01T14:35:23.209Z,1.95
2023-11-01T14:43:28.809Z,2.83
2023-11-01T14:51:36.931Z,2.50
2023-11-01T14:59:42.733Z,3.00
2023-11-01T15:07:50.905Z,4.10
2023-11-01T15:15:59.412Z,2.13
2023-11-01T15:24:10.850Z,4.82
2023-11-01T15:32:16.831Z,5.00
2023-11-01T15:40:25.062Z,5.70
2023-11-01T15:48:30.843Z,5.45
2023-11-01T15:56:40.367Z,5.82
2023-11-01T16:04:46.063Z,6.22
2023-11-01T16:12:54.313Z,6.40
2023-11-01T16:21:00.089Z,7.40
2023-11-01T16:29:08.913Z,7.60
2023-11-01T16:37:14.664Z,6.47
2023-11-01T16:45:25.517Z,11.70
2023-11-01T16:53:34.215Z,7.10
2023-11-01T17:01:44.311Z,10.48
2023-11-01T17:09:49.949Z,12.65
2023-11-01T17:17:58.915Z,11.05
2023-11-01T17:26:26.566Z,17.40
2023-11-01T17:34:37.691Z,12.20
2023-11-01T17:42:44.406Z,15.07
2023-11-01T17:50:55.979Z,16.45
2023-11-01T17:59:03.288Z,14.48
2023-11-01T18:07:11.689Z,17.85
2023-11-01T18:15:23.786Z,18.85
2023-11-01T18:23:32.439Z,17.67
2023-11-01T18:31:44.205Z,19.17
2023-11-01T18:39:52.521Z,22.55
2023-11-01T18:48:15.718Z,23.60
2023-11-01T18:56:23.933Z,24.05
2023-11-01T19:04:34.191Z,27.13
2023-11-01T19:12:53.091Z,29.50
2023-11-01T19:20:58.769Z,30.67
2023-11-01T19:29:09.772Z,32.05
2023-11-01T19:37:16.271Z,30.73
2023-11-01T19:45:24.858Z,21.70
2023-11-01T19:53:33.444Z,17.77
2023-11-01T20:01:42.214Z,15.20
2023-11-01T20:09:50.675Z,16.58
2023-11-01T20:18:05.628Z,15.98
2023-11-01T20:26:16.291Z,15.38
2023-11-01T20:34:27.448Z,12.60
2023-11-01T20:42:33.052Z,12.15
2023-11-01T20:50:41.170Z,12.35
2023-11-01T20:58:46.697Z,12.88
2023-11-01T21:06:54.808Z,10.13
2023-11-01T21:15:00.375Z,10.48
2023-11-01T21:23:08.529Z,11.77
2023-11-01T21:31:14.260Z,10.63
2023-11-01T21:39:22.610Z,9.00
2023-11-01T21:47:38.792Z,13.40
2023-11-01T21:55:55.742Z,10.52
2023-11-01T22:04:05.714Z,10.82
2023-11-01T22:12:19.875Z,10.73
2023-11-01T22:20:27.874Z,14.15
2023-11-01T22:28:36.032Z,14.13
2023-11-01T22:36:49.488Z,18.92
2023-11-01T22:53:03.652Z,17.92
2023-11-01T23:01:11.949Z,16.45
2023-11-01T23:09:17.657Z,16.13
2023-11-01T23:17:25.858Z,11.20
2023-11-01T23:25:33.190Z,11.18
2023-11-01T23:33:42.447Z,11.13
2023-11-01T23:41:50.508Z,11.45
2023-11-01T23:50:01.491Z,10.57
2023-11-01T23:58:08.655Z,11.95
